createdAt,value
2023-02-19T00:01:36.050Z,24.48
2023-02-19T00:04:08.280Z,23.80
2023-02-19T00:06:35.925Z,22.08
2023-02-19T00:09:03.393Z,16.80
2023-02-19T00:11:32.240Z,13.35
2023-02-19T00:14:00.442Z,13.40
2023-02-19T00:16:35.874Z,19.63
2023-02-19T00:19:05.149Z,19.13
2023-02-19T00:21:32.252Z,13.10
2023-02-19T00:24:04.639Z,14.52
2023-02-19T00:26:32.226Z,16.23
2023-02-19T00:28:59.781Z,15.20
2023-02-19T00:31:32.210Z,22.42
2023-02-19T00:34:01.726Z,15.50
2023-02-19T00:36:28.950Z,15.68
2023-02-19T00:38:55.699Z,20.05
2023-02-19T00:41:24.165Z,15.23
2023-02-19T00:43:56.340Z,19.95
2023-02-19T00:46:33.710Z,22.98
2023-02-19T00:49:00.873Z,16.00
2023-02-19T00:51:29.516Z,19.98
2023-02-19T00:53:56.509Z,13.93
2023-02-19T00:56:23.308Z,21.20
2023-02-19T00:58:50.533Z,20.85
2023-02-19T01:01:17.940Z,16.17
2023-02-19T01:03:44.942Z,21.85
2023-02-19T01:06:13.652Z,23.13
2023-02-19T01:08:40.327Z,16.73
2023-02-19T01:11:08.961Z,17.85
2023-02-19T01:13:36.291Z,22.08
2023-02-19T01:16:08.143Z,23.63
2023-02-19T01:18:36.148Z,23.63
2023-02-19T01:21:12.721Z,20.25
2023-02-19T01:23:39.663Z,21.00
2023-02-19T01:26:09.072Z,17.90
2023-02-19T01:28:35.887Z,16.42
2023-02-19T01:31:07.696Z,22.55
2023-02-19T01:33:35.373Z,14.88
2023-02-19T01:36:07.014Z,22.95
2023-02-19T01:38:33.936Z,19.88
2023-02-19T01:41:03.954Z,23.55
2023-02-19T01:43:33.182Z,18.38
2023-02-19T01:46:00.154Z,20.30
2023-02-19T01:48:32.823Z,18.08
2023-02-19T01:51:10.739Z,18.35
2023-02-19T01:53:41.988Z,19.20
2023-02-19T01:56:09.455Z,16.48
2023-02-19T01:58:37.215Z,14.23
2023-02-19T02:01:07.524Z,17.42
2023-02-19T02:03:37.942Z,21.00
2023-02-19T02:06:25.906Z,16.60
2023-02-19T02:09:15.570Z,19.08
2023-02-19T02:11:50.439Z,15.45
2023-02-19T02:14:19.588Z,11.43
2023-02-19T02:17:05.989Z,20.40
2023-02-19T02:19:57.182Z,13.52
2023-02-19T02:22:41.325Z,15.33
2023-02-19T02:25:33.558Z,15.70
2023-02-19T02:28:19.095Z,16.98
2023-02-19T02:30:59.119Z,24.45
2023-02-19T02:33:31.823Z,18.40
2023-02-19T02:36:00.155Z,13.63
2023-02-19T02:38:30.726Z,13.25
2023-02-19T02:40:58.469Z,8.90
2023-02-19T02:43:25.830Z,9.52
2023-02-19T02:45:52.701Z,10.85
2023-02-19T02:48:34.514Z,16.30
2023-02-19T02:51:28.969Z,16.00
2023-02-19T02:54:34.922Z,12.68
2023-02-19T02:57:02.464Z,14.50
2023-02-19T02:59:33.005Z,11.80
2023-02-19T03:02:26.202Z,14.63
2023-02-19T03:05:26.929Z,11.73
2023-02-19T03:07:55.355Z,12.55
2023-02-19T03:10:34.434Z,14.20
2023-02-19T03:13:21.403Z,14.48
2023-02-19T03:16:23.855Z,21.30
2023-02-19T03:19:13.285Z,18.23
2023-02-19T03:21:42.251Z,18.73
2023-02-19T03:24:30.653Z,18.30
2023-02-19T03:27:02.094Z,14.40
2023-02-19T03:29:31.301Z,11.43
2023-02-19T03:32:02.211Z,16.20
2023-02-19T03:34:37.869Z,12.07
2023-02-19T03:37:12.130Z,18.63
2023-02-19T03:39:44.351Z,18.90
2023-02-19T03:42:56.394Z,10.30
2023-02-19T03:45:29.133Z,14.93
2023-02-19T03:48:20.049Z,16.90
2023-02-19T03:50:58.352Z,12.05
2023-02-19T03:53:33.086Z,17.10
2023-02-19T03:56:10.895Z,13.07
2023-02-19T03:58:44.507Z,15.60
2023-02-19T04:01:21.812Z,11.02
2023-02-19T04:04:10.663Z,12.38
2023-02-19T04:06:39.775Z,16.63
2023-02-19T04:09:09.395Z,16.55
2023-02-19T04:11:38.136Z,14.90
2023-02-19T04:14:23.213Z,15.07
2023-02-19T04:16:56.600Z,17.33
2023-02-19T04:19:26.068Z,9.30
2023-02-19T04:21:53.958Z,15.57
2023-02-19T04:24:50.466Z,11.95
2023-02-19T04:27:17.649Z,16.25
2023-02-19T04:29:44.367Z,18.05
2023-02-19T04:32:12.498Z,13.07
2023-02-19T04:34:39.546Z,12.15
2023-02-19T04:37:06.645Z,15.52
2023-02-19T04:39:33.428Z,12.02
2023-02-19T04:42:00.088Z,13.27
2023-02-19T04:44:26.860Z,13.57
2023-02-19T04:46:53.535Z,17.15
2023-02-19T04:49:20.293Z,19.15
2023-02-19T04:51:46.909Z,15.93
2023-02-19T04:54:13.487Z,16.30
2023-02-19T04:56:40.175Z,12.70
2023-02-19T04:59:06.843Z,15.30
2023-02-19T05:01:33.513Z,11.57
2023-02-19T05:04:00.281Z,19.40
2023-02-19T05:06:27.468Z,14.82
2023-02-19T05:08:54.064Z,16.67
2023-02-19T05:11:23.678Z,14.07
2023-02-19T05:13:50.417Z,15.95
2023-02-19T05:16:17.559Z,15.48
2023-02-19T05:18:46.625Z,17.75
2023-02-19T05:21:14.578Z,15.50
2023-02-19T05:23:42.108Z,16.73
2023-02-19T05:26:12.957Z,20.45
2023-02-19T05:28:39.567Z,14.18
2023-02-19T05:31:09.349Z,17.67
2023-02-19T05:33:37.979Z,14.05
2023-02-19T05:36:08.393Z,16.52
2023-02-19T05:38:35.885Z,13.05
2023-02-19T05:41:20.086Z,14.02
2023-02-19T05:43:48.682Z,13.07
2023-02-19T05:46:17.723Z,12.82
2023-02-19T05:48:44.351Z,19.08
2023-02-19T05:51:13.283Z,12.88
2023-02-19T05:53:41.203Z,10.55
2023-02-19T05:56:34.926Z,16.75
2023-02-19T05:59:06.488Z,16.20
2023-02-19T06:01:33.899Z,19.52
2023-02-19T06:04:00.747Z,20.92
2023-02-19T06:06:27.874Z,14.23
2023-02-19T06:08:54.698Z,11.13
2023-02-19T06:11:21.523Z,15.85
2023-02-19T06:13:50.198Z,13.43
2023-02-19T06:16:17.954Z,13.13
2023-02-19T06:18:45.407Z,13.90
2023-02-19T06:21:12.754Z,11.25
2023-02-19T06:23:40.127Z,14.98
2023-02-19T06:26:22.223Z,11.07
2023-02-19T06:28:50.867Z,14.93
2023-02-19T06:31:19.584Z,10.05
2023-02-19T06:33:47.052Z,15.32
2023-02-19T06:36:16.130Z,14.93
2023-02-19T06:38:43.212Z,14.98
2023-02-19T06:41:11.291Z,13.88
2023-02-19T06:43:38.098Z,16.55
2023-02-19T06:46:06.532Z,12.50
2023-02-19T06:48:33.958Z,15.02
2023-02-19T06:51:00.702Z,20.15
2023-02-19T06:53:27.644Z,14.88
2023-02-19T06:56:03.231Z,13.43
2023-02-19T06:58:30.475Z,15.55
2023-02-19T07:00:57.365Z,16.58
2023-02-19T07:03:24.142Z,16.65
2023-02-19T07:05:50.821Z,19.15
2023-02-19T07:08:17.635Z,20.65
2023-02-19T07:10:55.561Z,18.63
2023-02-19T07:13:22.749Z,18.95
2023-02-19T07:15:51.781Z,20.13
2023-02-19T07:18:19.207Z,16.83
2023-02-19T07:20:45.879Z,21.83
2023-02-19T07:23:12.531Z,18.13
2023-02-19T07:25:39.452Z,18.42
2023-02-19T07:28:06.797Z,18.05
2023-02-19T07:30:33.628Z,18.88
2023-02-19T07:33:00.387Z,15.77
2023-02-19T07:35:27.372Z,20.83
2023-02-19T07:37:54.149Z,20.00
2023-02-19T07:40:20.892Z,17.45
2023-02-19T07:42:47.534Z,23.58
2023-02-19T07:45:14.262Z,16.95
2023-02-19T07:47:40.947Z,17.58
2023-02-19T07:50:08.037Z,18.88
2023-02-19T07:52:34.714Z,21.13
2023-02-19T07:55:02.206Z,22.15
2023-02-19T07:57:31.129Z,15.05
2023-02-19T07:59:58.860Z,15.07
2023-02-19T08:02:44.182Z,27.25
2023-02-19T08:05:10.945Z,19.38
2023-02-19T08:07:38.149Z,19.10
2023-02-19T08:10:24.269Z,26.85
2023-02-19T08:13:17.214Z,20.77
2023-02-19T08:15:44.419Z,17.58
2023-02-19T08:18:12.840Z,21.00
2023-02-19T08:20:39.590Z,17.65
2023-02-19T08:23:06.443Z,18.38
2023-02-19T08:25:34.089Z,15.93
2023-02-19T08:28:00.997Z,14.02
2023-02-19T08:30:29.466Z,17.23
2023-02-19T08:32:58.100Z,14.20
2023-02-19T08:35:24.822Z,16.58
2023-02-19T08:37:51.480Z,8.98
2023-02-19T08:40:18.256Z,15.63
2023-02-19T08:42:44.844Z,19.30
2023-02-19T08:45:11.503Z,13.25
2023-02-19T08:47:38.643Z,15.50
2023-02-19T08:50:06.979Z,21.20
2023-02-19T08:52:34.212Z,21.50
2023-02-19T08:55:01.596Z,15.75
2023-02-19T08:57:29.241Z,18.05
2023-02-19T08:59:59.569Z,17.15
2023-02-19T09:02:26.435Z,16.83
2023-02-19T09:04:53.052Z,19.70
2023-02-19T09:07:20.430Z,16.85
2023-02-19T09:09:47.088Z,21.38
2023-02-19T09:12:13.852Z,22.15
2023-02-19T09:14:40.972Z,20.23
2023-02-19T09:17:08.964Z,18.98
2023-02-19T09:19:36.237Z,19.20
2023-02-19T09:22:04.377Z,16.52
2023-02-19T09:24:31.978Z,22.65
2023-02-19T09:26:58.760Z,23.70
2023-02-19T09:29:27.534Z,20.90
2023-02-19T09:31:58.675Z,23.10
2023-02-19T09:34:26.413Z,14.65
2023-02-19T09:36:53.737Z,17.83
2023-02-19T09:39:21.260Z,13.85
2023-02-19T09:41:57.880Z,15.98
2023-02-19T09:44:30.942Z,15.20
2023-02-19T09:47:00.018Z,18.73
2023-02-19T09:49:33.415Z,17.13
2023-02-19T09:52:07.761Z,12.50
2023-02-19T09:54:37.239Z,12.20
2023-02-19T09:57:05.124Z,17.80
2023-02-19T10:00:04.589Z,11.50
2023-02-19T10:02:31.501Z,19.45
2023-02-19T10:04:58.825Z,16.38
2023-02-19T10:07:33.330Z,17.10
2023-02-19T10:10:14.002Z,9.38
2023-02-19T10:12:46.701Z,15.40
2023-02-19T10:15:38.121Z,11.20
2023-02-19T10:18:05.573Z,10.90
2023-02-19T10:20:32.572Z,13.73
2023-02-19T10:23:03.557Z,15.68
2023-02-19T10:25:31.922Z,12.37
2023-02-19T10:28:02.320Z,15.52
2023-02-19T10:30:35.472Z,8.02
2023-02-19T10:33:12.610Z,12.07
2023-02-19T10:36:00.039Z,14.85
2023-02-19T10:38:33.948Z,8.50
2023-02-19T10:41:06.994Z,12.20
2023-02-19T10:43:37.202Z,5.30
2023-02-19T10:46:16.095Z,8.15
2023-02-19T10:48:57.197Z,5.40
2023-02-19T10:51:41.135Z,5.07
2023-02-19T10:54:18.880Z,5.18
2023-02-19T10:56:46.214Z,6.40
2023-02-19T10:59:24.301Z,4.25
2023-02-19T11:02:17.064Z,5.28
2023-02-19T11:05:06.653Z,6.50
2023-02-19T11:07:33.584Z,4.30
2023-02-19T11:10:00.662Z,3.40
2023-02-19T11:12:29.717Z,4.15
2023-02-19T11:14:56.840Z,4.72
2023-02-19T11:17:26.741Z,3.42
2023-02-19T11:20:14.108Z,3.35
2023-02-19T11:22:46.828Z,4.25
2023-02-19T11:25:14.504Z,4.18
2023-02-19T11:27:59.969Z,2.47
2023-02-19T11:30:40.648Z,3.95
2023-02-19T11:33:16.527Z,2.83
2023-02-19T11:35:44.230Z,2.85
2023-02-19T11:38:13.367Z,5.13
2023-02-19T11:40:50.574Z,3.25
2023-02-19T11:43:22.834Z,2.28
2023-02-19T11:46:02.516Z,4.97
2023-02-19T11:48:44.489Z,3.50
2023-02-19T11:53:49.865Z,5.05
2023-02-19T11:56:24.694Z,4.38
2023-02-19T11:59:04.990Z,4.03
2023-02-19T12:01:31.732Z,5.45
2023-02-19T12:04:18.965Z,3.60
2023-02-19T12:07:10.411Z,6.35
2023-02-19T12:09:44.838Z,5.47
2023-02-19T12:12:21.694Z,3.42
2023-02-19T12:14:48.303Z,3.55
2023-02-19T12:17:47.012Z,3.85
2023-02-19T12:20:14.080Z,4.30
2023-02-19T12:22:44.773Z,3.88
2023-02-19T12:25:34.630Z,4.30
2023-02-19T12:28:28.227Z,6.25
2023-02-19T12:31:18.958Z,3.80
2023-02-19T12:34:06.079Z,2.95
2023-02-19T12:36:52.732Z,3.22
2023-02-19T12:39:43.057Z,3.15
2023-02-19T12:42:21.582Z,2.75
2023-02-19T12:44:54.276Z,3.25
2023-02-19T12:47:29.919Z,2.97
2023-02-19T12:50:08.588Z,1.58
2023-02-19T12:52:40.284Z,2.60
2023-02-19T12:55:28.381Z,2.95
2023-02-19T12:57:56.745Z,3.17
2023-02-19T13:00:35.519Z,2.85
2023-02-19T13:03:05.764Z,2.65
2023-02-19T13:05:58.593Z,3.92
2023-02-19T13:08:34.088Z,3.95
2023-02-19T13:11:15.218Z,3.55
2023-02-19T13:13:52.647Z,2.70
2023-02-19T13:16:21.811Z,4.32
2023-02-19T13:18:50.356Z,3.95
2023-02-19T13:21:38.446Z,3.00
2023-02-19T13:24:09.638Z,2.10
2023-02-19T13:27:19.862Z,2.80
2023-02-19T13:30:04.811Z,3.58
2023-02-19T13:33:02.328Z,2.38
2023-02-19T13:36:01.367Z,3.63
2023-02-19T13:38:28.317Z,2.40
2023-02-19T13:40:57.499Z,2.38
2023-02-19T13:43:37.038Z,3.22
2023-02-19T13:46:12.349Z,4.28
2023-02-19T13:48:40.924Z,3.55
2023-02-19T13:51:16.347Z,3.92
2023-02-19T13:53:45.842Z,4.90
2023-02-19T13:56:34.129Z,3.08
2023-02-19T13:59:24.691Z,2.28
2023-02-19T14:01:51.438Z,3.85
2023-02-19T14:04:51.956Z,4.22
2023-02-19T14:07:18.539Z,5.15
2023-02-19T14:09:46.390Z,3.40
2023-02-19T14:12:15.425Z,4.10
2023-02-19T14:14:53.625Z,4.90
2023-02-19T14:17:27.715Z,2.75
2023-02-19T14:20:09.530Z,4.95
2023-02-19T14:22:45.879Z,2.40
2023-02-19T14:25:30.211Z,4.97
2023-02-19T14:28:21.296Z,2.97
2023-02-19T14:30:50.817Z,2.55
2023-02-19T14:33:21.929Z,3.20
2023-02-19T14:35:53.966Z,2.58
2023-02-19T14:38:28.243Z,3.83
2023-02-19T14:40:56.470Z,2.17
2023-02-19T14:43:25.851Z,3.70
2023-02-19T14:46:00.802Z,2.55
2023-02-19T14:48:36.597Z,2.33
2023-02-19T14:51:15.088Z,1.92
2023-02-19T14:53:45.035Z,1.25
2023-02-19T14:56:22.493Z,1.20
2023-02-19T14:59:12.088Z,0.70
2023-02-19T15:01:39.317Z,1.45
2023-02-19T15:04:06.870Z,1.75
2023-02-19T15:06:36.015Z,1.85
2023-02-19T15:09:07.228Z,0.98
2023-02-19T15:11:35.197Z,1.17
2023-02-19T15:14:07.636Z,1.40
2023-02-19T15:16:36.122Z,1.45
2023-02-19T15:19:07.562Z,3.13
2023-02-19T15:21:38.740Z,2.47
2023-02-19T15:24:06.922Z,2.08
2023-02-19T15:26:35.736Z,3.72
2023-02-19T15:29:09.024Z,2.38
2023-02-19T15:31:35.892Z,2.35
2023-02-19T15:34:02.858Z,2.78
2023-02-19T15:36:32.450Z,3.22
2023-02-19T15:39:01.717Z,3.15
2023-02-19T15:41:33.382Z,1.98
2023-02-19T15:44:24.380Z,1.65
2023-02-19T15:46:51.307Z,1.40
2023-02-19T15:49:41.357Z,4.68
2023-02-19T15:52:18.942Z,2.78
2023-02-19T15:55:06.833Z,2.33
2023-02-19T15:57:43.071Z,2.00
2023-02-19T16:00:16.265Z,1.90
2023-02-19T16:02:43.148Z,5.15
2023-02-19T16:05:22.825Z,2.35
2023-02-19T16:08:15.698Z,3.30
2023-02-19T16:10:53.745Z,3.53
2023-02-19T16:13:24.145Z,3.38
2023-02-19T16:16:00.535Z,3.22
2023-02-19T16:18:27.493Z,3.67
2023-02-19T16:20:54.167Z,4.72
2023-02-19T16:23:24.310Z,4.43
2023-02-19T16:25:59.265Z,5.93
2023-02-19T16:28:29.445Z,7.10
2023-02-19T16:31:01.590Z,5.45
2023-02-19T16:33:37.203Z,6.10
2023-02-19T16:36:20.843Z,6.10
2023-02-19T16:39:06.734Z,4.32
2023-02-19T16:41:34.467Z,5.00
2023-02-19T16:44:06.444Z,12.38
2023-02-19T16:46:33.357Z,17.70
2023-02-19T16:49:00.041Z,13.77
2023-02-19T16:51:27.744Z,9.88
2023-02-19T16:53:54.468Z,9.63
2023-02-19T16:56:22.926Z,6.97
2023-02-19T16:58:52.710Z,8.02
2023-02-19T17:01:19.476Z,4.22
2023-02-19T17:03:47.704Z,6.50
2023-02-19T17:06:15.420Z,8.35
2023-02-19T17:08:43.505Z,8.85
2023-02-19T17:11:15.927Z,9.27
2023-02-19T17:13:43.612Z,7.93
2023-02-19T17:16:23.783Z,12.48
2023-02-19T17:18:51.118Z,23.42
2023-02-19T17:21:23.975Z,13.10
2023-02-19T17:23:51.386Z,6.63
2023-02-19T17:26:21.220Z,6.60
2023-02-19T17:28:47.950Z,24.25
2023-02-19T17:31:14.762Z,8.05
2023-02-19T17:33:42.656Z,3.63
2023-02-19T17:36:18.075Z,3.42
2023-02-19T17:38:45.241Z,8.68
2023-02-19T17:41:12.152Z,4.47
2023-02-19T17:43:39.110Z,3.65
2023-02-19T17:46:05.979Z,3.55
2023-02-19T17:48:32.799Z,6.85
2023-02-19T17:50:59.585Z,2.85
2023-02-19T17:53:26.353Z,3.08
2023-02-19T17:55:53.092Z,4.60
2023-02-19T17:58:19.851Z,1.98
2023-02-19T18:00:46.565Z,2.20
2023-02-19T18:03:13.348Z,2.22
2023-02-19T18:05:40.034Z,4.03
2023-02-19T18:08:06.794Z,2.92
2023-02-19T18:10:33.668Z,2.35
2023-02-19T18:13:00.410Z,3.50
2023-02-19T18:15:27.283Z,4.88
2023-02-19T18:17:56.559Z,3.38
2023-02-19T18:20:25.771Z,3.08
2023-02-19T18:22:53.229Z,6.72
2023-02-19T18:25:20.742Z,4.25
2023-02-19T18:27:48.533Z,3.60
2023-02-19T18:30:18.821Z,4.35
2023-02-19T18:32:49.395Z,5.57
2023-02-19T18:35:18.400Z,3.20
2023-02-19T18:37:45.585Z,6.28
2023-02-19T18:40:12.708Z,4.93
2023-02-19T18:42:40.351Z,4.50
2023-02-19T18:45:07.648Z,7.85
2023-02-19T18:47:34.265Z,8.20
2023-02-19T18:50:01.078Z,11.70
2023-02-19T18:52:28.045Z,10.20
2023-02-19T18:54:57.197Z,15.27
2023-02-19T18:57:25.455Z,13.80
2023-02-19T18:59:52.993Z,14.68
2023-02-19T19:02:20.080Z,12.82
2023-02-19T19:04:51.912Z,13.25
2023-02-19T19:07:19.451Z,10.35
2023-02-19T19:09:46.468Z,9.85
2023-02-19T19:12:13.618Z,8.55
2023-02-19T19:14:40.481Z,11.18
2023-02-19T19:17:07.194Z,12.27
2023-02-19T19:19:33.976Z,10.00
2023-02-19T19:22:00.639Z,8.38
2023-02-19T19:24:27.265Z,10.00
2023-02-19T19:26:54.104Z,8.68
2023-02-19T19:29:22.086Z,6.40
2023-02-19T19:31:49.701Z,5.47
2023-02-19T19:34:17.165Z,7.15
2023-02-19T19:36:44.228Z,7.40
2023-02-19T19:39:10.917Z,6.13
2023-02-19T19:41:37.613Z,4.85
2023-02-19T19:44:05.910Z,5.07
2023-02-19T19:46:32.877Z,5.93
2023-02-19T19:48:59.588Z,5.32
2023-02-19T19:51:35.384Z,5.47
2023-02-19T19:54:04.040Z,5.07
2023-02-19T19:56:31.487Z,4.22
2023-02-19T19:58:58.125Z,6.00
2023-02-19T20:01:24.792Z,4.03
2023-02-19T20:03:51.426Z,8.68
2023-02-19T20:06:29.357Z,4.55
2023-02-19T20:08:56.526Z,4.68
2023-02-19T20:11:23.534Z,5.13
2023-02-19T20:13:50.311Z,7.80
2023-02-19T20:16:17.016Z,4.75
2023-02-19T20:18:43.642Z,4.28
2023-02-19T20:21:11.095Z,6.00
2023-02-19T20:23:39.721Z,7.15
2023-02-19T20:26:07.170Z,8.02
2023-02-19T20:28:33.936Z,7.55
2023-02-19T20:31:00.706Z,7.55
2023-02-19T20:33:27.320Z,5.97
2023-02-19T20:35:54.096Z,6.53
2023-02-19T20:38:20.755Z,6.28
2023-02-19T20:40:47.397Z,6.45
2023-02-19T20:43:14.005Z,6.38
2023-02-19T20:45:40.965Z,5.65
2023-02-19T20:48:07.625Z,6.18
2023-02-19T20:50:34.310Z,6.68
2023-02-19T20:53:01.106Z,8.15
2023-02-19T20:55:28.628Z,9.60
2023-02-19T20:57:55.291Z,8.63
2023-02-19T21:00:22.180Z,6.25
2023-02-19T21:02:48.851Z,7.63
2023-02-19T21:05:17.476Z,6.45
2023-02-19T21:07:44.114Z,6.43
2023-02-19T21:10:10.883Z,9.80
2023-02-19T21:12:38.009Z,8.77
2023-02-19T21:15:05.511Z,6.00
2023-02-19T21:17:32.267Z,5.05
2023-02-19T21:19:58.921Z,8.65
2023-02-19T21:22:25.579Z,8.98
2023-02-19T21:24:53.584Z,8.60
2023-02-19T21:27:20.988Z,7.95
2023-02-19T21:29:47.824Z,7.15
2023-02-19T21:32:14.661Z,7.07
2023-02-19T21:34:42.563Z,9.52
2023-02-19T21:37:09.296Z,6.65
2023-02-19T21:39:35.948Z,7.50
2023-02-19T21:42:03.728Z,6.60
2023-02-19T21:44:30.340Z,6.22
2023-02-19T21:46:57.079Z,7.50
2023-02-19T21:49:24.104Z,7.35
2023-02-19T21:51:50.875Z,6.25
2023-02-19T21:54:21.659Z,6.82
2023-02-19T21:56:48.765Z,10.18
2023-02-19T21:59:15.726Z,5.88
2023-02-19T22:01:43.411Z,10.88
2023-02-19T22:04:15.571Z,6.18
2023-02-19T22:06:42.396Z,5.15
2023-02-19T22:09:10.328Z,8.73
2023-02-19T22:11:36.960Z,8.13
2023-02-19T22:14:03.867Z,6.65
2023-02-19T22:16:30.526Z,10.07
2023-02-19T22:18:58.560Z,7.38
2023-02-19T22:21:28.370Z,4.90
2023-02-19T22:23:55.375Z,7.40
2023-02-19T22:26:23.759Z,6.75
2023-02-19T22:28:50.751Z,6.80
2023-02-19T22:31:19.475Z,8.75
2023-02-19T22:33:46.216Z,7.15
2023-02-19T22:36:19.179Z,7.45
2023-02-19T22:38:46.430Z,8.18
2023-02-19T22:41:13.970Z,7.70
2023-02-19T22:43:41.928Z,9.63
2023-02-19T22:46:29.192Z,8.80
2023-02-19T22:48:56.269Z,8.93
2023-02-19T22:51:24.173Z,7.78
2023-02-19T22:53:53.587Z,11.70
2023-02-19T22:56:23.111Z,10.20
2023-02-19T22:58:50.462Z,9.88
2023-02-19T23:01:18.089Z,9.27
2023-02-19T23:03:56.935Z,11.55
2023-02-19T23:06:29.921Z,10.25
2023-02-19T23:08:58.849Z,11.75
2023-02-19T23:11:27.751Z,10.38
2023-02-19T23:13:55.038Z,9.57
2023-02-19T23:16:21.972Z,7.65
2023-02-19T23:18:48.928Z,9.02
2023-02-19T23:21:16.649Z,12.65
2023-02-19T23:23:44.222Z,12.98
2023-02-19T23:26:11.873Z,9.40
2023-02-19T23:28:43.481Z,9.82
2023-02-19T23:31:10.496Z,12.02
2023-02-19T23:33:37.168Z,10.00
2023-02-19T23:36:04.203Z,11.68
2023-02-19T23:38:30.946Z,12.07
2023-02-19T23:40:57.612Z,14.77
2023-02-19T23:43:24.277Z,14.43
2023-02-19T23:45:50.931Z,11.05
2023-02-19T23:48:17.695Z,14.43
2023-02-19T23:50:44.308Z,12.60
2023-02-19T23:53:11.092Z,14.15
2023-02-19T23:55:37.766Z,12.52
2023-02-19T23:58:04.385Z,13.70
